Airfield :
LOGIN :

Register | Disclaimer

   EN    FR    IT 

 










Legend :    VFR   Marginal VFR   IFR   Intensive IFR   Very Intensive IFR
Visi :
Ceiling :
>= 8 km
>= 3000ft
5 to 8 km
1000 to 3000 ft
1500m to 5 km
500 to 1000 ft
800 to 1500m
200 to 500 ft
< 800m
< 200 ft
Symbols :   Thunderstorms  Fog  Heavy snow  Heavy precipitations  Wind > 20 kt
SIGMETs :     Misc.  Thunderstorms  Icing  Turbulence  Mountain Waves  Volcanic Ashes






- Airport Elevation : 788 ft
- IATA code : DCM


LFCK - Castres-Mazamet

CURRENT METAR :
  • 282100Z AUTO 27014KT 9999 OVC015/// ///CB 09/07 Q1020 BECMG BKN015 BKN020

EXPIRED METARs :
  • 282030Z AUTO 26013KT 9999 -DZ BKN018/// BKN034/// OVC049/// ///CB 09/07 Q1019 BECMG BKN015 BKN020
  • 282000Z AUTO 27012KT 9999 -DZ SCT022/// BKN032/// OVC043/// ///CB 09/07 Q1019 TEMPO 4000 SHRA BECMG BKN015 BKN020
  • 281930Z AUTO 27015KT 9999 -RA BKN016/// BKN026/// BKN042/// ///CB 09/07 Q1019 TEMPO 4000 SHRA BECMG BKN015 BKN020
  • 281900Z AUTO 26015KT 9999 OVC017/// ///CB 09/07 Q1019 TEMPO 4000 SHRA BKN012 BKN020TCU
  • 281830Z AUTO 27011KT 9999 OVC017/// ///CB 09/08 Q1019 TEMPO 4000 SHRA BKN012 BKN020TCU

TAF TAF LFCK
Valid from the 28 at 18:00 until the 29 at 03:00 UTC


281700Z 2818/2903 29008KT 9999 BKN015 BKN020
TEMPO 2818/2821 SCT025TCU
TEMPO 2818/2821 4000 SHRA BKN012 BKN020TCU
BECMG 2823/2901 OVC006
BECMG 2901/2903 VRB03KT 3000 BR OVC003



MET'MAP, your aeronautical weather chart ! - Copyright ORBIFLY December 2007 - Disclaimer

ORBIFLY MET'MAP TEAM :

Programming & Development : Alexandra Zaïnal
Original concept : Baudouin d'Aumeries
Technical & hardware support : Manuel Goepfert
Assistance : Marc-Olivier Méhu




SOURCES & CREDITS :

   NOAA